Weather at Desert Springs Hospital Heliport

Public forecast

Using degrees Fahrenheit for public forecast. Weather courtesy of forecast.io.

Closest aviation weather report (METAR) to Desert Springs Hospital Heliport

Closest report is McCarran International Airport, 2.4 nm (4.4 km) SW. Retrieved 2022/01/27 08:56 UTC (27 minutes ago):

KLAS 270856Z 22004KT 10SM CLR 04/M10 A3022 RMK AO2 SLP235 T00391100 51001

Closest aviation forecast (TAF) to Desert Springs Hospital Heliport

Closest forecast is McCarran International Airport, 2.4 nm (4.4 km) SW. Retrieved 2022/01/27 06:24 UTC (3 hours ago):

TAF KLAS 270520Z 2706/2812 24005KT P6SM SKC FM271800 04009KT P6SM SKC FM272100 03014G22KT P6SM SKC FM280400 35009KT P6SM SKC